createdAt,value
2017-12-24T00:00:43.367Z,971.12
2017-12-24T00:01:43.367Z,971.10
2017-12-24T00:02:43.369Z,971.12
2017-12-24T00:03:43.372Z,971.12
2017-12-24T00:04:43.372Z,971.12
2017-12-24T00:05:43.374Z,971.12
2017-12-24T00:06:43.378Z,971.12
2017-12-24T00:07:43.379Z,971.10
2017-12-24T00:08:43.383Z,971.15
2017-12-24T00:09:43.392Z,971.14
2017-12-24T00:10:43.386Z,971.13
2017-12-24T00:11:43.388Z,971.14
2017-12-24T00:12:43.390Z,971.18
2017-12-24T00:13:43.394Z,971.17
2017-12-24T00:14:43.402Z,971.18
2017-12-24T00:15:43.403Z,971.16
2017-12-24T00:16:43.440Z,971.20
2017-12-24T00:17:43.444Z,971.15
2017-12-24T00:18:43.443Z,971.16
2017-12-24T00:19:43.439Z,971.14
2017-12-24T00:20:43.441Z,971.13
2017-12-24T00:21:43.442Z,971.11
2017-12-24T00:22:43.444Z,971.13
2017-12-24T00:23:43.447Z,971.15
2017-12-24T00:24:43.447Z,971.11
2017-12-24T00:25:43.447Z,971.08
2017-12-24T00:26:43.445Z,971.03
2017-12-24T00:27:43.446Z,971.07
2017-12-24T00:28:43.447Z,971.04
2017-12-24T00:29:43.447Z,971.02
2017-12-24T00:30:43.448Z,970.96
2017-12-24T00:31:43.450Z,970.95
2017-12-24T00:32:43.453Z,970.92
2017-12-24T00:33:43.448Z,970.95
2017-12-24T00:34:43.452Z,970.91
2017-12-24T00:35:43.450Z,970.91
2017-12-24T00:36:43.451Z,970.91
2017-12-24T00:37:43.452Z,970.92
2017-12-24T00:38:43.454Z,970.94
2017-12-24T00:39:43.485Z,970.93
2017-12-24T00:40:43.453Z,970.95
2017-12-24T00:41:43.455Z,970.92
2017-12-24T00:42:43.461Z,970.91
2017-12-24T00:43:43.460Z,970.89
2017-12-24T00:44:43.461Z,970.88
2017-12-24T00:45:43.463Z,970.86
2017-12-24T00:46:43.477Z,970.84
2017-12-24T00:47:43.467Z,970.87
2017-12-24T00:48:43.470Z,970.84
2017-12-24T00:49:43.471Z,970.84
2017-12-24T00:50:43.475Z,970.82
2017-12-24T00:51:43.476Z,970.84
2017-12-24T00:52:43.494Z,970.85
2017-12-24T00:53:43.487Z,970.83
2017-12-24T00:54:43.494Z,970.85
2017-12-24T00:55:43.489Z,970.82
2017-12-24T00:56:43.490Z,970.83
2017-12-24T00:57:43.491Z,970.81
2017-12-24T00:58:43.491Z,970.82
2017-12-24T00:59:43.493Z,970.80
2017-12-24T01:00:43.496Z,970.80
2017-12-24T01:01:43.498Z,970.79
2017-12-24T01:02:43.500Z,970.82
2017-12-24T01:03:43.503Z,970.83
2017-12-24T01:04:43.504Z,970.82
2017-12-24T01:05:43.507Z,970.82
2017-12-24T01:06:43.509Z,970.81
2017-12-24T01:07:43.510Z,970.83
2017-12-24T01:08:43.514Z,970.80
2017-12-24T01:09:43.515Z,970.79
2017-12-24T01:10:43.518Z,970.83
2017-12-24T01:11:43.519Z,970.87
2017-12-24T01:12:43.523Z,970.82
2017-12-24T01:13:43.524Z,970.88
2017-12-24T01:14:43.526Z,970.87
2017-12-24T01:15:43.528Z,970.83
2017-12-24T01:16:43.531Z,970.86
2017-12-24T01:17:43.532Z,970.86
2017-12-24T01:18:43.536Z,970.84
2017-12-24T01:19:43.535Z,970.86
2017-12-24T01:20:43.538Z,970.89
2017-12-24T01:21:43.540Z,970.88
2017-12-24T01:22:43.543Z,970.89
2017-12-24T01:23:43.545Z,970.85
2017-12-24T01:24:43.546Z,970.86
2017-12-24T01:25:43.550Z,970.81
2017-12-24T01:26:43.552Z,970.82
2017-12-24T01:27:43.553Z,970.81
2017-12-24T01:28:43.555Z,970.81
2017-12-24T01:29:43.558Z,970.76
2017-12-24T01:30:43.560Z,970.77
2017-12-24T01:31:43.561Z,970.70
2017-12-24T01:32:43.564Z,970.69
2017-12-24T01:33:43.574Z,970.69
2017-12-24T01:34:43.574Z,970.69
2017-12-24T01:35:43.576Z,970.68
2017-12-24T01:36:43.572Z,970.67
2017-12-24T01:37:43.578Z,970.67
2017-12-24T01:38:43.578Z,970.70
2017-12-24T01:39:43.579Z,970.69
2017-12-24T01:40:43.582Z,970.69
2017-12-24T01:41:43.583Z,970.71
2017-12-24T01:42:43.586Z,970.71
2017-12-24T01:43:43.587Z,970.71
2017-12-24T01:44:43.591Z,970.72
2017-12-24T01:45:43.592Z,970.70
2017-12-24T01:46:43.597Z,970.71
2017-12-24T01:47:43.595Z,970.70
2017-12-24T01:48:43.600Z,970.72
2017-12-24T01:49:43.603Z,970.72
2017-12-24T01:50:43.602Z,970.74
2017-12-24T01:51:43.604Z,970.73
2017-12-24T01:52:43.604Z,970.78
2017-12-24T01:53:43.608Z,970.76
2017-12-24T01:54:43.611Z,970.78
2017-12-24T01:55:43.612Z,970.80
2017-12-24T01:56:43.614Z,970.77
2017-12-24T01:57:43.617Z,970.77
2017-12-24T01:58:43.619Z,970.83
2017-12-24T01:59:43.620Z,970.84
2017-12-24T02:00:43.623Z,970.87
2017-12-24T02:01:43.625Z,970.87
2017-12-24T02:02:43.632Z,970.87
2017-12-24T02:03:43.629Z,970.85
2017-12-24T02:04:43.631Z,970.84
2017-12-24T02:05:43.634Z,970.80
2017-12-24T02:06:43.636Z,970.77
2017-12-24T02:07:43.636Z,970.75
2017-12-24T02:08:43.637Z,970.78
2017-12-24T02:09:43.641Z,970.77
2017-12-24T02:10:43.644Z,970.73
2017-12-24T02:11:43.645Z,970.72
2017-12-24T02:12:43.657Z,970.67
2017-12-24T02:13:43.653Z,970.67
2017-12-24T02:14:43.653Z,970.63
2017-12-24T02:15:43.657Z,970.62
2017-12-24T02:16:43.658Z,970.58
2017-12-24T02:17:43.658Z,970.57
2017-12-24T02:18:43.660Z,970.54
2017-12-24T02:19:43.662Z,970.51
2017-12-24T02:20:43.671Z,970.51
2017-12-24T02:21:43.666Z,970.47
2017-12-24T02:22:43.669Z,970.46
2017-12-24T02:23:43.669Z,970.49
2017-12-24T02:24:43.676Z,970.43
2017-12-24T02:25:43.674Z,970.46
2017-12-24T02:26:43.677Z,970.46
2017-12-24T02:27:43.678Z,970.43
2017-12-24T02:28:43.680Z,970.39
2017-12-24T02:29:43.682Z,970.42
2017-12-24T02:30:43.685Z,970.40
2017-12-24T02:31:43.685Z,970.36
2017-12-24T02:32:43.690Z,970.35
2017-12-24T02:33:43.690Z,970.34
2017-12-24T02:34:43.696Z,970.34
2017-12-24T02:35:43.694Z,970.34
2017-12-24T02:36:43.696Z,970.31
2017-12-24T02:37:43.699Z,970.29
2017-12-24T02:38:43.701Z,970.28
2017-12-24T02:39:43.702Z,970.31
2017-12-24T02:40:43.705Z,970.30
2017-12-24T02:41:43.707Z,970.30
2017-12-24T02:42:43.713Z,970.32
2017-12-24T02:43:43.781Z,970.30
2017-12-24T02:44:43.712Z,970.29
2017-12-24T02:45:43.715Z,970.28
2017-12-24T02:46:43.718Z,970.28
2017-12-24T02:47:43.717Z,970.28
2017-12-24T02:48:43.721Z,970.34
2017-12-24T02:49:43.724Z,970.30
2017-12-24T02:50:43.726Z,970.32
2017-12-24T02:51:43.726Z,970.32
2017-12-24T02:52:43.729Z,970.32
2017-12-24T02:53:43.731Z,970.28
2017-12-24T02:54:43.733Z,970.31
2017-12-24T02:55:43.737Z,970.32
2017-12-24T02:56:43.738Z,970.32
2017-12-24T02:57:43.739Z,970.27
2017-12-24T02:58:43.743Z,970.26
2017-12-24T02:59:43.742Z,970.30
2017-12-24T03:00:43.745Z,970.27
2017-12-24T03:01:43.752Z,970.25
2017-12-24T03:02:43.753Z,970.22
2017-12-24T03:03:43.751Z,970.22
2017-12-24T03:04:43.753Z,970.18
2017-12-24T03:05:43.757Z,970.17
2017-12-24T03:06:43.758Z,970.16
2017-12-24T03:07:43.758Z,970.18
2017-12-24T03:08:43.761Z,970.14
2017-12-24T03:09:43.764Z,970.12
2017-12-24T03:10:43.766Z,970.16
2017-12-24T03:11:43.769Z,970.14
2017-12-24T03:12:43.768Z,970.17
2017-12-24T03:13:43.772Z,970.11
2017-12-24T03:14:43.775Z,970.12
2017-12-24T03:15:43.775Z,970.16
2017-12-24T03:16:43.777Z,970.11
2017-12-24T03:17:43.779Z,970.10
2017-12-24T03:18:43.782Z,970.09
2017-12-24T03:19:43.783Z,970.07
2017-12-24T03:20:43.786Z,970.06
2017-12-24T03:21:43.788Z,970.02
2017-12-24T03:22:43.790Z,970.03
2017-12-24T03:23:43.791Z,970.02
2017-12-24T03:24:43.793Z,969.97
2017-12-24T03:25:43.796Z,969.96
2017-12-24T03:26:43.798Z,969.97
2017-12-24T03:27:43.799Z,970.01
2017-12-24T03:28:43.801Z,969.99
2017-12-24T03:29:43.804Z,970.01
2017-12-24T03:30:43.807Z,970.02
2017-12-24T03:31:43.807Z,970.03
2017-12-24T03:32:43.810Z,970.06
2017-12-24T03:33:43.812Z,970.06
2017-12-24T03:34:43.814Z,970.04
2017-12-24T03:35:43.814Z,970.03
2017-12-24T03:36:43.818Z,970.00
2017-12-24T03:37:43.820Z,970.05
2017-12-24T03:38:43.822Z,970.03
2017-12-24T03:39:43.823Z,970.03
2017-12-24T03:40:43.826Z,969.98
2017-12-24T03:41:43.829Z,969.99
2017-12-24T03:42:43.830Z,970.02
2017-12-24T03:43:43.831Z,970.00
2017-12-24T03:44:43.832Z,970.01
2017-12-24T03:45:43.838Z,969.97
2017-12-24T03:46:43.839Z,969.93
2017-12-24T03:47:43.838Z,969.92
2017-12-24T03:48:43.840Z,969.92
2017-12-24T03:49:43.844Z,969.89
2017-12-24T03:50:43.845Z,969.90
2017-12-24T03:51:43.846Z,969.91
2017-12-24T03:52:43.849Z,969.90
2017-12-24T03:53:43.852Z,969.86
2017-12-24T03:54:43.852Z,969.92
2017-12-24T03:55:43.856Z,969.93
2017-12-24T03:56:43.856Z,969.90
2017-12-24T03:57:43.859Z,969.90
2017-12-24T03:58:43.861Z,969.90
2017-12-24T03:59:43.863Z,969.88
2017-12-24T04:00:43.865Z,969.89
2017-12-24T04:01:43.867Z,969.88
2017-12-24T04:02:43.870Z,969.88
2017-12-24T04:03:43.870Z,969.86
2017-12-24T04:04:43.873Z,969.87
2017-12-24T04:05:43.876Z,969.76
2017-12-24T04:06:43.877Z,969.77
2017-12-24T04:07:43.879Z,969.77
2017-12-24T04:08:43.880Z,969.74
2017-12-24T04:09:43.883Z,969.71
2017-12-24T04:10:43.885Z,969.72
2017-12-24T04:11:43.885Z,969.69
2017-12-24T04:12:43.891Z,969.69
2017-12-24T04:13:43.897Z,969.69
2017-12-24T04:14:43.893Z,969.70
2017-12-24T04:15:43.895Z,969.67
2017-12-24T04:16:43.897Z,969.66
2017-12-24T04:17:43.899Z,969.62
2017-12-24T04:18:43.902Z,969.61
2017-12-24T04:19:43.908Z,969.59
2017-12-24T04:20:43.905Z,969.54
2017-12-24T04:21:43.918Z,969.56
2017-12-24T04:22:43.910Z,969.53
2017-12-24T04:23:43.912Z,969.55
2017-12-24T04:24:43.914Z,969.52
2017-12-24T04:25:43.916Z,969.56
2017-12-24T04:26:43.919Z,969.55
2017-12-24T04:27:43.920Z,969.59
2017-12-24T04:28:43.923Z,969.55
2017-12-24T04:29:43.925Z,969.55
2017-12-24T04:30:43.928Z,969.61
2017-12-24T04:31:43.929Z,969.59
2017-12-24T04:32:43.932Z,969.54
2017-12-24T04:33:43.934Z,969.55
2017-12-24T04:34:43.936Z,969.57
2017-12-24T04:35:43.938Z,969.56
2017-12-24T04:36:43.941Z,969.57
2017-12-24T04:37:43.943Z,969.56
2017-12-24T04:38:43.946Z,969.60
2017-12-24T04:39:43.948Z,969.59
2017-12-24T04:40:43.950Z,969.57
2017-12-24T04:41:43.953Z,969.55
2017-12-24T04:42:43.954Z,969.60
2017-12-24T04:43:43.957Z,969.59
2017-12-24T04:44:43.959Z,969.63
2017-12-24T04:45:43.962Z,969.69
2017-12-24T04:46:43.968Z,969.67
2017-12-24T04:47:43.966Z,969.68
2017-12-24T04:48:43.969Z,969.68
2017-12-24T04:49:43.972Z,969.68
2017-12-24T04:50:43.979Z,969.69
2017-12-24T04:51:43.976Z,969.67
2017-12-24T04:52:43.978Z,969.63
2017-12-24T04:53:43.981Z,969.66
2017-12-24T04:54:43.984Z,969.67
2017-12-24T04:55:43.986Z,969.63
2017-12-24T04:56:43.988Z,969.64
2017-12-24T04:57:43.991Z,969.68
2017-12-24T04:58:43.993Z,969.64
2017-12-24T04:59:43.995Z,969.60
2017-12-24T05:00:43.996Z,969.61
2017-12-24T05:01:44.000Z,969.60
2017-12-24T05:02:44.003Z,969.61
2017-12-24T05:03:44.004Z,969.64
2017-12-24T05:04:44.008Z,969.64
2017-12-24T05:05:44.010Z,969.66
2017-12-24T05:06:44.012Z,969.63
2017-12-24T05:07:44.014Z,969.67
2017-12-24T05:08:44.017Z,969.66
2017-12-24T05:09:44.020Z,969.61
2017-12-24T05:10:44.022Z,969.63
2017-12-24T05:11:44.024Z,969.61
2017-12-24T05:12:44.026Z,969.58
2017-12-24T05:13:44.030Z,969.61
2017-12-24T05:14:44.032Z,969.63
2017-12-24T05:15:44.034Z,969.62
2017-12-24T05:16:44.036Z,969.61
2017-12-24T05:17:44.039Z,969.61
2017-12-24T05:18:44.043Z,969.61
2017-12-24T05:19:44.043Z,969.58
2017-12-24T05:20:44.047Z,969.59
2017-12-24T05:21:44.056Z,969.58
2017-12-24T05:22:44.058Z,969.56
2017-12-24T05:23:44.058Z,969.58
2017-12-24T05:24:44.055Z,969.57
2017-12-24T05:25:44.059Z,969.60
2017-12-24T05:26:44.061Z,969.55
2017-12-24T05:27:44.064Z,969.57
2017-12-24T05:28:44.066Z,969.58
2017-12-24T05:29:44.069Z,969.56
2017-12-24T05:30:44.071Z,969.56
2017-12-24T05:31:44.073Z,969.59
2017-12-24T05:32:44.076Z,969.56
2017-12-24T05:33:44.077Z,969.57
2017-12-24T05:34:44.086Z,969.58
2017-12-24T05:35:44.083Z,969.61
2017-12-24T05:36:44.086Z,969.59
2017-12-24T05:37:44.089Z,969.59
2017-12-24T05:38:44.091Z,969.56
2017-12-24T05:39:44.094Z,969.55
2017-12-24T05:40:44.097Z,969.58
2017-12-24T05:41:44.103Z,969.56
2017-12-24T05:42:44.102Z,969.60
2017-12-24T05:43:44.103Z,969.57
2017-12-24T05:44:44.107Z,969.52
2017-12-24T05:45:44.110Z,969.52
2017-12-24T05:46:44.112Z,969.50
2017-12-24T05:47:44.114Z,969.52
2017-12-24T05:48:44.117Z,969.48
2017-12-24T05:49:44.120Z,969.48
2017-12-24T05:50:44.122Z,969.47
2017-12-24T05:51:44.127Z,969.48
2017-12-24T05:52:44.128Z,969.47
2017-12-24T05:53:44.137Z,969.47
2017-12-24T05:54:44.138Z,969.46
2017-12-24T05:55:44.139Z,969.45
2017-12-24T05:56:44.142Z,969.44
2017-12-24T05:57:44.141Z,969.45
2017-12-24T05:58:44.143Z,969.44
2017-12-24T05:59:44.148Z,969.42
2017-12-24T06:00:44.148Z,969.44
2017-12-24T06:01:44.151Z,969.46
2017-12-24T06:02:44.154Z,969.45
2017-12-24T06:03:44.156Z,969.47
2017-12-24T06:04:44.158Z,969.45
2017-12-24T06:05:44.161Z,969.49
2017-12-24T06:06:44.164Z,969.51
2017-12-24T06:07:44.166Z,969.49
2017-12-24T06:08:44.169Z,969.49
2017-12-24T06:09:44.172Z,969.54
2017-12-24T06:10:44.175Z,969.50
2017-12-24T06:11:44.177Z,969.51
2017-12-24T06:12:44.181Z,969.51
2017-12-24T06:13:44.183Z,969.50
2017-12-24T06:14:44.189Z,969.51
2017-12-24T06:15:44.189Z,969.48
2017-12-24T06:16:44.193Z,969.51
2017-12-24T06:17:44.194Z,969.44
2017-12-24T06:18:44.195Z,969.44
2017-12-24T06:19:44.197Z,969.47
2017-12-24T06:20:44.211Z,969.50
2017-12-24T06:21:44.204Z,969.53
2017-12-24T06:22:44.206Z,969.56
2017-12-24T06:23:44.208Z,969.52
2017-12-24T06:24:44.210Z,969.55
2017-12-24T06:25:44.213Z,969.52
2017-12-24T06:26:44.218Z,969.54
2017-12-24T06:27:44.218Z,969.51
2017-12-24T06:28:44.220Z,969.54
2017-12-24T06:29:44.222Z,969.56
2017-12-24T06:30:44.226Z,969.55
2017-12-24T06:31:44.226Z,969.56
2017-12-24T06:32:44.229Z,969.54
2017-12-24T06:33:44.232Z,969.52
2017-12-24T06:34:44.234Z,969.52
2017-12-24T06:35:44.237Z,969.54
2017-12-24T06:36:44.238Z,969.56
2017-12-24T06:37:44.241Z,969.55
2017-12-24T06:38:44.244Z,969.55
2017-12-24T06:39:44.245Z,969.53
2017-12-24T06:40:44.248Z,969.54
2017-12-24T06:41:44.251Z,969.51
2017-12-24T06:42:44.256Z,969.53
2017-12-24T06:43:44.268Z,969.51
2017-12-24T06:44:44.261Z,969.51
2017-12-24T06:45:44.261Z,969.46
2017-12-24T06:46:44.262Z,969.47
2017-12-24T06:47:44.263Z,969.43
2017-12-24T06:48:44.265Z,969.41
2017-12-24T06:49:44.269Z,969.40
2017-12-24T06:50:44.321Z,969.35
2017-12-24T06:51:44.271Z,969.36
2017-12-24T06:52:44.274Z,969.38
2017-12-24T06:53:44.277Z,969.40
2017-12-24T06:54:44.279Z,969.39
2017-12-24T06:55:44.282Z,969.41
2017-12-24T06:56:44.283Z,969.41
2017-12-24T06:57:44.285Z,969.39
2017-12-24T06:58:44.288Z,969.42
2017-12-24T06:59:44.289Z,969.37
2017-12-24T07:00:44.291Z,969.37
2017-12-24T07:01:44.296Z,969.36
2017-12-24T07:02:44.296Z,969.37
2017-12-24T07:03:44.298Z,969.39
2017-12-24T07:04:44.305Z,969.40
2017-12-24T07:05:44.306Z,969.41
2017-12-24T07:06:44.306Z,969.42
2017-12-24T07:07:44.308Z,969.40
2017-12-24T07:08:44.311Z,969.37
2017-12-24T07:09:44.311Z,969.40
2017-12-24T07:10:44.314Z,969.37
2017-12-24T07:11:44.314Z,969.35
2017-12-24T07:12:44.317Z,969.34
2017-12-24T07:13:44.319Z,969.32
2017-12-24T07:14:44.323Z,969.30
2017-12-24T07:15:44.323Z,969.31
2017-12-24T07:16:44.325Z,969.27
2017-12-24T07:17:44.329Z,969.30
2017-12-24T07:18:44.331Z,969.28
2017-12-24T07:19:44.331Z,969.30
2017-12-24T07:20:44.335Z,969.28
2017-12-24T07:21:44.335Z,969.31
2017-12-24T07:22:44.338Z,969.22
2017-12-24T07:23:44.339Z,969.27
2017-12-24T07:24:44.342Z,969.28
2017-12-24T07:25:44.345Z,969.28
2017-12-24T07:26:44.347Z,969.28
2017-12-24T07:27:44.348Z,969.30
2017-12-24T07:28:44.351Z,969.29
2017-12-24T07:29:44.354Z,969.26
2017-12-24T07:30:44.356Z,969.29
2017-12-24T07:31:44.356Z,969.28
2017-12-24T07:32:44.368Z,969.30
2017-12-24T07:33:44.361Z,969.27
2017-12-24T07:34:44.363Z,969.25
2017-12-24T07:35:44.364Z,969.29
2017-12-24T07:36:44.367Z,969.27
2017-12-24T07:37:44.369Z,969.29
2017-12-24T07:38:44.372Z,969.29
2017-12-24T07:39:44.373Z,969.32
2017-12-24T07:40:44.375Z,969.34
2017-12-24T07:41:44.386Z,969.32
2017-12-24T07:42:44.380Z,969.34
2017-12-24T07:43:44.382Z,969.31
2017-12-24T07:44:44.384Z,969.28
2017-12-24T07:45:44.391Z,969.31
2017-12-24T07:46:44.392Z,969.29
2017-12-24T07:47:44.395Z,969.32
2017-12-24T07:48:44.396Z,969.29
2017-12-24T07:49:44.396Z,969.30
2017-12-24T07:50:44.398Z,969.33
2017-12-24T07:51:44.395Z,969.30
2017-12-24T07:52:44.400Z,969.33
2017-12-24T07:53:44.405Z,969.30
2017-12-24T07:54:44.405Z,969.31
2017-12-24T07:55:44.404Z,969.31
2017-12-24T07:56:44.412Z,969.36
2017-12-24T07:57:44.411Z,969.32
2017-12-24T07:58:44.413Z,969.33
2017-12-24T07:59:44.414Z,969.35
2017-12-24T08:00:44.418Z,969.34
2017-12-24T08:01:44.419Z,969.33
2017-12-24T08:02:44.427Z,969.34
2017-12-24T08:03:44.423Z,969.29
2017-12-24T08:04:44.425Z,969.30
2017-12-24T08:05:44.438Z,969.32
2017-12-24T08:06:44.430Z,969.27
2017-12-24T08:07:44.430Z,969.30
2017-12-24T08:08:44.434Z,969.30
2017-12-24T08:09:44.437Z,969.28
2017-12-24T08:10:44.438Z,969.28
2017-12-24T08:11:44.439Z,969.27
2017-12-24T08:12:44.442Z,969.28
2017-12-24T08:13:44.444Z,969.28
2017-12-24T08:14:44.446Z,969.25
2017-12-24T08:15:44.448Z,969.26
2017-12-24T08:16:44.450Z,969.27
2017-12-24T08:17:44.452Z,969.30
2017-12-24T08:18:44.454Z,969.30
2017-12-24T08:19:44.456Z,969.30
2017-12-24T08:20:44.458Z,969.27
2017-12-24T08:21:44.464Z,969.29
2017-12-24T08:22:44.465Z,969.27
2017-12-24T08:23:44.467Z,969.32
2017-12-24T08:24:44.467Z,969.28
2017-12-24T08:25:44.468Z,969.33
2017-12-24T08:26:44.469Z,969.32
2017-12-24T08:27:44.472Z,969.29
2017-12-24T08:28:44.474Z,969.32
2017-12-24T08:29:44.478Z,969.32
2017-12-24T08:30:44.478Z,969.33
2017-12-24T08:31:44.481Z,969.34
2017-12-24T08:32:44.483Z,969.31
2017-12-24T08:33:44.485Z,969.33
2017-12-24T08:34:44.487Z,969.31
2017-12-24T08:35:44.496Z,969.30
2017-12-24T08:36:44.491Z,969.31
2017-12-24T08:37:44.493Z,969.31
2017-12-24T08:38:44.496Z,969.31
2017-12-24T08:39:44.497Z,969.32
2017-12-24T08:40:44.499Z,969.36
2017-12-24T08:41:44.501Z,969.38
2017-12-24T08:42:44.503Z,969.36
2017-12-24T08:43:44.504Z,969.34
2017-12-24T08:44:44.507Z,969.35
2017-12-24T08:45:44.511Z,969.32
2017-12-24T08:46:44.514Z,969.31
2017-12-24T08:47:44.514Z,969.30
2017-12-24T08:48:44.515Z,969.30
2017-12-24T08:49:44.576Z,969.30
2017-12-24T08:50:44.522Z,969.28
2017-12-24T08:51:44.523Z,969.27
2017-12-24T08:52:44.526Z,969.28
2017-12-24T08:53:44.526Z,969.23
2017-12-24T08:54:44.530Z,969.23
2017-12-24T08:55:44.531Z,969.24
2017-12-24T08:56:44.532Z,969.22
2017-12-24T08:57:44.540Z,969.24
2017-12-24T08:58:44.537Z,969.25
2017-12-24T08:59:44.538Z,969.25
2017-12-24T09:00:44.541Z,969.24
2017-12-24T09:01:44.543Z,969.26
2017-12-24T09:02:44.545Z,969.23
2017-12-24T09:03:44.546Z,969.28
2017-12-24T09:04:44.547Z,969.28
2017-12-24T09:05:44.550Z,969.28
2017-12-24T09:06:44.553Z,969.28
2017-12-24T09:07:44.555Z,969.30
2017-12-24T09:08:44.557Z,969.33
2017-12-24T09:09:44.559Z,969.29
2017-12-24T09:10:44.562Z,969.33
2017-12-24T09:11:44.564Z,969.28
2017-12-24T09:12:44.564Z,969.29
2017-12-24T09:13:44.600Z,969.27
2017-12-24T09:14:44.571Z,969.30
2017-12-24T09:15:44.571Z,969.25
2017-12-24T09:16:44.573Z,969.27
2017-12-24T09:17:44.575Z,969.28
2017-12-24T09:18:44.578Z,969.29
2017-12-24T09:19:44.580Z,969.27
2017-12-24T09:20:44.581Z,969.26
2017-12-24T09:21:44.585Z,969.25
2017-12-24T09:22:44.587Z,969.23
2017-12-24T09:23:44.588Z,969.22
2017-12-24T09:24:44.590Z,969.24
2017-12-24T09:25:44.595Z,969.22
2017-12-24T09:26:44.593Z,969.18
2017-12-24T09:27:44.597Z,969.18
2017-12-24T09:28:44.598Z,969.19
2017-12-24T09:29:44.601Z,969.17
2017-12-24T09:30:44.602Z,969.19
2017-12-24T09:31:44.603Z,969.16
2017-12-24T09:32:44.606Z,969.13
2017-12-24T09:33:44.610Z,969.17
2017-12-24T09:34:44.610Z,969.15
2017-12-24T09:35:44.612Z,969.13
2017-12-24T09:36:44.614Z,969.18
2017-12-24T09:37:44.615Z,969.14
2017-12-24T09:38:44.619Z,969.12
2017-12-24T09:39:44.619Z,969.10
2017-12-24T09:40:44.623Z,969.09
2017-12-24T09:41:44.625Z,969.11
2017-12-24T09:42:44.627Z,969.11
2017-12-24T09:43:44.628Z,969.06
2017-12-24T09:44:44.632Z,969.09
2017-12-24T09:45:44.634Z,969.07
2017-12-24T09:46:44.635Z,969.06
2017-12-24T09:47:44.636Z,969.09
2017-12-24T09:48:44.639Z,969.09
2017-12-24T09:49:44.642Z,969.07
2017-12-24T09:50:44.644Z,969.05
2017-12-24T09:51:44.646Z,969.00
2017-12-24T09:52:44.648Z,968.97
2017-12-24T09:53:44.650Z,968.96
2017-12-24T09:54:44.652Z,968.95
2017-12-24T09:55:44.656Z,969.01
2017-12-24T09:56:44.656Z,969.01
2017-12-24T09:57:44.659Z,968.99
2017-12-24T09:58:44.662Z,968.98
2017-12-24T09:59:44.662Z,969.01
2017-12-24T10:00:44.665Z,968.97
2017-12-24T10:01:44.668Z,969.00
2017-12-24T10:02:44.670Z,969.01
2017-12-24T10:03:44.671Z,968.99
2017-12-24T10:04:44.676Z,969.01
2017-12-24T10:05:44.674Z,968.96
2017-12-24T10:06:44.679Z,968.98
2017-12-24T10:07:44.679Z,968.96
2017-12-24T10:08:44.681Z,968.99
2017-12-24T10:09:44.684Z,968.94
2017-12-24T10:10:44.689Z,968.95
2017-12-24T10:11:44.688Z,968.91
2017-12-24T10:12:44.690Z,968.91
2017-12-24T10:13:44.693Z,968.89
2017-12-24T10:14:44.702Z,968.88
2017-12-24T10:15:44.695Z,968.88
2017-12-24T10:16:44.706Z,968.88
2017-12-24T10:17:44.707Z,968.85
2017-12-24T10:18:44.706Z,968.87
2017-12-24T10:19:44.704Z,968.87
2017-12-24T10:20:44.706Z,968.82
2017-12-24T10:21:44.709Z,968.82
2017-12-24T10:22:44.711Z,968.82
2017-12-24T10:23:44.713Z,968.79
2017-12-24T10:24:44.715Z,968.77
2017-12-24T10:25:44.718Z,968.75
2017-12-24T10:26:44.721Z,968.76
2017-12-24T10:27:44.725Z,968.73
2017-12-24T10:28:44.725Z,968.71
2017-12-24T10:29:44.726Z,968.68
2017-12-24T10:30:44.728Z,968.71
2017-12-24T10:31:44.730Z,968.70
2017-12-24T10:32:44.733Z,968.72
2017-12-24T10:33:44.735Z,968.71
2017-12-24T10:34:44.741Z,968.70
2017-12-24T10:35:44.738Z,968.71
2017-12-24T10:36:44.742Z,968.67
2017-12-24T10:37:44.745Z,968.68
2017-12-24T10:38:44.752Z,968.66
2017-12-24T10:39:44.746Z,968.64
2017-12-24T10:40:44.749Z,968.61
2017-12-24T10:41:44.751Z,968.59
2017-12-24T10:42:44.753Z,968.60
2017-12-24T10:43:44.756Z,968.55
2017-12-24T10:44:44.758Z,968.56
2017-12-24T10:45:44.760Z,968.54
2017-12-24T10:46:44.762Z,968.56
2017-12-24T10:47:44.763Z,968.50
2017-12-24T10:48:44.767Z,968.50
2017-12-24T10:49:44.768Z,968.47
2017-12-24T10:50:44.771Z,968.45
2017-12-24T10:51:44.774Z,968.50
2017-12-24T10:52:44.774Z,968.50
2017-12-24T10:53:44.778Z,968.44
2017-12-24T10:54:44.779Z,968.46
2017-12-24T10:55:44.780Z,968.42
2017-12-24T10:56:44.782Z,968.45
2017-12-24T10:57:44.787Z,968.44
2017-12-24T10:58:44.795Z,968.36
2017-12-24T10:59:44.797Z,968.34
2017-12-24T11:00:44.795Z,968.32
2017-12-24T11:01:44.806Z,968.30
2017-12-24T11:02:44.798Z,968.30
2017-12-24T11:03:44.800Z,968.28
2017-12-24T11:04:44.801Z,968.20
2017-12-24T11:05:44.805Z,968.19
2017-12-24T11:06:44.805Z,968.18
2017-12-24T11:07:44.805Z,968.18
2017-12-24T11:08:44.807Z,968.21
2017-12-24T11:09:44.809Z,968.19
2017-12-24T11:10:44.812Z,968.21
2017-12-24T11:11:44.815Z,968.19
2017-12-24T11:12:44.820Z,968.14
2017-12-24T11:13:44.818Z,968.17
2017-12-24T11:14:44.820Z,968.15
2017-12-24T11:15:44.822Z,968.13
2017-12-24T11:16:44.826Z,968.12
2017-12-24T11:17:44.829Z,968.12
2017-12-24T11:18:44.830Z,968.06
2017-12-24T11:19:44.829Z,968.09
2017-12-24T11:20:44.834Z,968.07
2017-12-24T11:21:44.835Z,968.07
2017-12-24T11:22:44.843Z,968.08
2017-12-24T11:23:44.839Z,968.06
2017-12-24T11:24:44.842Z,968.03
2017-12-24T11:25:44.847Z,968.04
2017-12-24T11:26:44.849Z,968.06
2017-12-24T11:27:44.847Z,968.05
2017-12-24T11:28:44.851Z,968.03
2017-12-24T11:29:44.852Z,968.05
2017-12-24T11:30:44.856Z,968.01
2017-12-24T11:31:44.856Z,967.98
2017-12-24T11:32:44.858Z,967.99
2017-12-24T11:33:44.863Z,968.01
2017-12-24T11:34:44.864Z,967.97
2017-12-24T11:35:44.868Z,967.97
2017-12-24T11:36:44.866Z,967.96
2017-12-24T11:37:44.870Z,967.87
2017-12-24T11:38:44.874Z,967.89
2017-12-24T11:39:44.877Z,967.90
2017-12-24T11:40:44.876Z,967.85
2017-12-24T11:41:44.878Z,967.86
2017-12-24T11:42:44.880Z,967.86
2017-12-24T11:43:44.883Z,967.84
2017-12-24T11:44:44.883Z,967.83
2017-12-24T11:45:44.886Z,967.80
2017-12-24T11:46:44.888Z,967.79
2017-12-24T11:47:44.916Z,967.75
2017-12-24T11:48:44.898Z,967.75
2017-12-24T11:49:44.894Z,967.76
2017-12-24T11:50:44.896Z,967.73
2017-12-24T11:51:44.899Z,967.71
2017-12-24T11:52:44.900Z,967.72
2017-12-24T11:53:44.904Z,967.72
2017-12-24T11:54:44.906Z,967.69
2017-12-24T11:55:44.906Z,967.68
2017-12-24T11:56:44.910Z,967.66
2017-12-24T11:57:44.911Z,967.62
2017-12-24T11:58:44.913Z,967.61
2017-12-24T11:59:44.915Z,967.64
2017-12-24T12:00:44.923Z,967.64
2017-12-24T12:01:44.923Z,967.62
2017-12-24T12:02:44.922Z,967.63
2017-12-24T12:03:44.924Z,967.63
2017-12-24T12:04:44.926Z,967.59
2017-12-24T12:05:44.928Z,967.61
2017-12-24T12:06:44.931Z,967.60
2017-12-24T12:07:44.933Z,967.58
2017-12-24T12:08:44.935Z,967.60
2017-12-24T12:09:44.937Z,967.58
2017-12-24T12:10:44.939Z,967.58
2017-12-24T12:11:44.941Z,967.59
2017-12-24T12:12:44.945Z,967.54
2017-12-24T12:13:44.946Z,967.51
2017-12-24T12:14:44.948Z,967.53
2017-12-24T12:15:44.950Z,967.52
2017-12-24T12:16:44.953Z,967.53
2017-12-24T12:17:44.954Z,967.50
2017-12-24T12:18:44.963Z,967.52
2017-12-24T12:19:44.962Z,967.46
2017-12-24T12:20:44.962Z,967.42
2017-12-24T12:21:44.970Z,967.43
2017-12-24T12:22:44.965Z,967.43
2017-12-24T12:23:44.970Z,967.44
2017-12-24T12:24:44.969Z,967.39
2017-12-24T12:25:44.972Z,967.42
2017-12-24T12:26:44.975Z,967.41
2017-12-24T12:27:44.975Z,967.40
2017-12-24T12:28:44.977Z,967.38